Time,TemperatureF,DewpointF,PressureIn,WindDirection,WindDirectionDegrees,WindSpeedMPH,WindSpeedGustMPH,Humidity,HourlyPrecipIn,Conditions,Clouds,dailyrainin,SoftwareType,DateUTC
2013-02-20 00:00:00,33.4,14.8,30.22,WNW,303,9.0,9.0,46,0.00,,,0.35,Wunderground v.1.15,2013-02-20 05:00:00,
2013-02-20 00:01:00,33.4,14.8,30.22,NW,304,4.0,9.0,46,0.00,,,0.35,Wunderground v.1.15,2013-02-20 05:01:00,
2013-02-20 00:05:00,33.2,14.6,30.22,NW,309,2.0,9.0,46,0.00,,,0.35,Wunderground v.1.15,2013-02-20 05:05:00,
2013-02-20 00:11:00,33.1,16.0,30.22,NW,315,3.0,5.0,49,0.00,,,0.00,Wunderground v.1.15,2013-02-20 05:11:00,
2013-02-20 00:16:00,32.7,14.7,30.22,NW,312,3.0,5.0,47,0.00,,,0.00,Wunderground v.1.15,2013-02-20 05:16:00,
2013-02-20 00:21:00,32.8,14.8,30.22,WNW,292,0.0,5.0,47,0.00,,,0.00,Wunderground v.1.15,2013-02-20 05:21:00,
2013-02-20 00:26:00,32.8,14.8,30.21,North,358,4.0,5.0,47,0.00,,,0.00,Wunderground v.1.15,2013-02-20 05:26:00,
2013-02-20 00:32:00,32.5,14.5,30.21,NW,307,4.0,4.0,47,0.00,,,0.00,Wunderground v.1.15,2013-02-20 05:32:00,
2013-02-20 00:38:00,32.5,15.9,30.21,NW,323,2.0,4.0,50,0.00,,,0.00,Wunderground v.1.15,2013-02-20 05:38:00,
2013-02-20 00:43:00,32.2,14.7,30.20,NW,323,2.0,3.0,48,0.00,,,0.00,Wunderground v.1.15,2013-02-20 05:43:00,
2013-02-20 00:48:00,32.1,14.1,30.20,NW,323,3.0,3.0,47,0.00,,,0.00,Wunderground v.1.15,2013-02-20 05:48:00,
2013-02-20 00:53:00,32.2,14.7,30.20,NW,316,1.0,6.0,48,0.00,,,0.00,Wunderground v.1.15,2013-02-20 05:53:00,
2013-02-20 00:58:00,32.1,15.1,30.20,NW,316,1.0,6.0,49,0.00,,,0.00,Wunderground v.1.15,2013-02-20 05:58:00,
2013-02-20 01:03:00,31.9,14.4,30.20,WNW,303,1.0,1.0,48,0.00,,,0.00,Wunderground v.1.15,2013-02-20 06:03:00,
2013-02-20 01:08:00,32.1,14.6,30.21,NW,307,0.0,3.0,48,0.00,,,0.00,Wunderground v.1.15,2013-02-20 06:08:00,
2013-02-20 01:14:00,31.8,15.3,30.21,NW,307,0.0,1.0,50,0.00,,,0.00,Wunderground v.1.15,2013-02-20 06:14:00,
2013-02-20 01:19:00,31.9,14.9,30.21,NW,308,0.0,3.0,49,0.00,,,0.00,Wunderground v.1.15,2013-02-20 06:19:00,
2013-02-20 01:24:00,32.1,14.6,30.22,WNW,288,3.0,8.0,48,0.00,,,0.00,Wunderground v.1.15,2013-02-20 06:24:00,
2013-02-20 01:29:00,31.9,14.4,30.22,WNW,288,1.0,8.0,48,0.00,,,0.00,Wunderground v.1.15,2013-02-20 06:29:00,
2013-02-20 01:34:00,31.8,14.3,30.22,WNW,291,0.0,3.0,48,0.00,,,0.00,Wunderground v.1.15,2013-02-20 06:34:00,
2013-02-20 01:39:00,31.6,15.1,30.22,WNW,292,3.0,3.0,50,0.00,,,0.00,Wunderground v.1.15,2013-02-20 06:39:00,
2013-02-20 01:44:00,31.5,15.0,30.22,WNW,292,0.0,1.0,50,0.00,,,0.00,Wunderground v.1.15,2013-02-20 06:44:00,
2013-02-20 01:50:00,31.3,15.7,30.22,WNW,292,1.0,3.0,52,0.00,,,0.00,Wunderground v.1.15,2013-02-20 06:50:00,
2013-02-20 01:55:00,31.2,14.7,30.22,WNW,292,0.0,1.0,50,0.00,,,0.00,Wunderground v.1.15,2013-02-20 06:55:00,
2013-02-20 02:00:00,31.0,15.8,30.22,WNW,292,0.0,0.0,53,0.00,,,0.00,Wunderground v.1.15,2013-02-20 07:00:00,
2013-02-20 02:05:00,30.9,15.8,30.22,WNW,292,0.0,0.0,53,0.00,,,0.00,Wunderground v.1.15,2013-02-20 07:05:00,
2013-02-20 02:10:00,30.7,15.1,30.21,WNW,292,1.0,1.0,52,0.00,,,0.00,Wunderground v.1.15,2013-02-20 07:10:00,
2013-02-20 02:15:00,30.7,15.6,30.21,WNW,292,0.0,2.0,53,0.00,,,0.00,Wunderground v.1.15,2013-02-20 07:15:00,
2013-02-20 02:20:00,30.6,15.9,30.21,WNW,292,0.0,0.0,54,0.00,,,0.00,Wunderground v.1.15,2013-02-20 07:20:00,
2013-02-20 02:25:00,30.4,14.9,30.21,WNW,292,0.0,2.0,52,0.00,,,0.00,Wunderground v.1.15,2013-02-20 07:25:00,
2013-02-20 02:30:00,30.4,15.7,30.21,WNW,292,0.0,0.0,54,0.00,,,0.00,Wunderground v.1.15,2013-02-20 07:30:00,
2013-02-20 02:35:00,30.3,15.2,30.21,WNW,292,0.0,0.0,53,0.00,,,0.00,Wunderground v.1.15,2013-02-20 07:35:00,
2013-02-20 02:40:00,30.1,14.6,30.21,WNW,292,0.0,0.0,52,0.00,,,0.00,Wunderground v.1.15,2013-02-20 07:40:00,
2013-02-20 02:45:00,30.1,15.0,30.21,WNW,292,0.0,1.0,53,0.00,,,0.00,Wunderground v.1.15,2013-02-20 07:45:00,
2013-02-20 02:50:00,30.1,15.0,30.21,WNW,292,0.0,0.0,53,0.00,,,0.00,Wunderground v.1.15,2013-02-20 07:50:00,
2013-02-20 02:55:00,30.1,15.4,30.21,WNW,292,0.0,2.0,54,0.00,,,0.00,Wunderground v.1.15,2013-02-20 07:55:00,
2013-02-20 03:00:00,30.3,14.8,30.21,WNW,292,1.0,1.0,52,0.00,,,0.00,Wunderground v.1.15,2013-02-20 08:00:00,
2013-02-20 03:05:00,30.6,15.9,30.21,WNW,292,0.0,2.0,54,0.00,,,0.00,Wunderground v.1.15,2013-02-20 08:05:00,
2013-02-20 03:10:00,30.4,15.3,30.21,WNW,292,0.0,0.0,53,0.00,,,0.00,Wunderground v.1.15,2013-02-20 08:10:00,
2013-02-20 03:15:00,30.4,15.3,30.21,WNW,292,0.0,3.0,53,0.00,,,0.00,Wunderground v.1.15,2013-02-20 08:15:00,
2013-02-20 03:20:00,30.7,15.6,30.21,WNW,297,2.0,2.0,53,0.00,,,0.00,Wunderground v.1.15,2013-02-20 08:20:00,
2013-02-20 03:25:00,30.9,15.8,30.20,WNW,297,0.0,2.0,53,0.00,,,0.00,Wunderground v.1.15,2013-02-20 08:25:00,
2013-02-20 03:30:00,30.9,15.8,30.20,WNW,297,0.0,0.0,53,0.00,,,0.00,Wunderground v.1.15,2013-02-20 08:30:00,
2013-02-20 03:35:00,30.7,16.4,30.20,WNW,297,0.0,2.0,55,0.00,,,0.00,Wunderground v.1.15,2013-02-20 08:35:00,
2013-02-20 03:40:00,30.7,16.0,30.20,WNW,297,0.0,0.0,54,0.00,,,0.00,Wunderground v.1.15,2013-02-20 08:40:00,
2013-02-20 03:45:00,30.7,15.6,30.20,WNW,297,0.0,4.0,53,0.00,,,0.00,Wunderground v.1.15,2013-02-20 08:45:00,
2013-02-20 03:50:00,30.6,15.0,30.20,WNW,297,0.0,0.0,52,0.00,,,0.00,Wunderground v.1.15,2013-02-20 08:50:00,
2013-02-20 03:55:00,30.4,15.3,30.19,WNW,299,2.0,4.0,53,0.00,,,0.00,Wunderground v.1.15,2013-02-20 08:55:00,
2013-02-20 04:00:00,30.6,15.9,30.19,WNW,299,0.0,0.0,54,0.00,,,0.00,Wunderground v.1.15,2013-02-20 09:00:00,
2013-02-20 04:05:00,30.6,15.0,30.19,WNW,299,0.0,1.0,52,0.00,,,0.00,Wunderground v.1.15,2013-02-20 09:05:00,
2013-02-20 04:11:00,30.3,15.2,30.21,WNW,299,0.0,0.0,53,0.00,,,0.00,Wunderground v.1.15,2013-02-20 09:11:00,
2013-02-20 04:16:00,30.1,15.4,30.21,WNW,299,0.0,1.0,54,0.00,,,0.00,Wunderground v.1.15,2013-02-20 09:16:00,
2013-02-20 04:21:00,30.0,15.3,30.21,WNW,299,0.0,0.0,54,0.00,,,0.00,Wunderground v.1.15,2013-02-20 09:21:00,
2013-02-20 04:26:00,29.7,15.5,30.20,WNW,299,0.0,0.0,55,0.00,,,0.00,Wunderground v.1.15,2013-02-20 09:26:00,
2013-02-20 04:31:00,29.7,15.1,30.20,WNW,299,0.0,0.0,54,0.00,,,0.00,Wunderground v.1.15,2013-02-20 09:31:00,
2013-02-20 04:36:00,29.5,14.9,30.20,WNW,299,0.0,0.0,54,0.00,,,0.00,Wunderground v.1.15,2013-02-20 09:36:00,
2013-02-20 04:41:00,29.4,14.8,30.20,WNW,299,0.0,0.0,54,0.00,,,0.00,Wunderground v.1.15,2013-02-20 09:41:00,
2013-02-20 04:46:00,29.4,15.2,30.20,WNW,299,0.0,0.0,55,0.00,,,0.00,Wunderground v.1.15,2013-02-20 09:46:00,
2013-02-20 04:51:00,29.3,14.7,30.20,WNW,299,0.0,0.0,54,0.00,,,0.00,Wunderground v.1.15,2013-02-20 09:51:00,
2013-02-20 04:56:00,29.1,14.5,30.21,WNW,299,0.0,0.0,54,0.00,,,0.00,Wunderground v.1.15,2013-02-20 09:56:00,
2013-02-20 05:01:00,29.0,15.2,30.21,WNW,299,0.0,2.0,56,0.00,,,0.00,Wunderground v.1.15,2013-02-20 10:01:00,
2013-02-20 05:06:00,28.7,15.4,30.21,WNW,299,0.0,2.0,57,0.00,,,0.00,Wunderground v.1.15,2013-02-20 10:06:00,
2013-02-20 05:11:00,28.7,15.8,30.22,WNW,299,0.0,0.0,58,0.00,,,0.00,Wunderground v.1.15,2013-02-20 10:11:00,
2013-02-20 05:16:00,28.5,15.2,30.22,WNW,299,0.0,3.0,57,0.00,,,0.00,Wunderground v.1.15,2013-02-20 10:16:00,
2013-02-20 05:21:00,28.5,15.6,30.22,WNW,299,0.0,0.0,58,0.00,,,0.00,Wunderground v.1.15,2013-02-20 10:21:00,
2013-02-20 05:26:00,28.4,15.5,30.22,WNW,299,0.0,0.0,58,0.00,,,0.00,Wunderground v.1.15,2013-02-20 10:26:00,
2013-02-20 05:31:00,28.2,16.1,30.22,WNW,299,0.0,0.0,60,0.00,,,0.00,Wunderground v.1.15,2013-02-20 10:31:00,
2013-02-20 05:36:00,27.9,15.8,30.22,WNW,299,0.0,1.0,60,0.00,,,0.00,Wunderground v.1.15,2013-02-20 10:36:00,
2013-02-20 05:41:00,27.8,15.7,30.23,WNW,299,0.0,1.0,60,0.00,,,0.00,Wunderground v.1.15,2013-02-20 10:41:00,
2013-02-20 05:46:00,27.6,16.3,30.23,WNW,299,0.0,1.0,62,0.00,,,0.00,Wunderground v.1.15,2013-02-20 10:46:00,
2013-02-20 05:51:00,27.3,16.0,30.23,WNW,299,0.0,1.0,62,0.00,,,0.00,Wunderground v.1.15,2013-02-20 10:51:00,
2013-02-20 05:56:00,27.2,15.5,30.24,WNW,299,0.0,3.0,61,0.00,,,0.00,Wunderground v.1.15,2013-02-20 10:56:00,
2013-02-20 06:02:00,27.2,15.5,30.24,WNW,299,0.0,0.0,61,0.00,,,0.00,Wunderground v.1.15,2013-02-20 11:02:00,
2013-02-20 06:07:00,27.0,16.1,30.24,WNW,299,0.0,1.0,63,0.00,,,0.00,Wunderground v.1.15,2013-02-20 11:07:00,
2013-02-20 06:12:00,26.6,15.7,30.24,WNW,299,0.0,3.0,63,0.00,,,0.00,Wunderground v.1.15,2013-02-20 11:12:00,
2013-02-20 06:17:00,26.4,15.1,30.24,WNW,299,0.0,3.0,62,0.00,,,0.00,Wunderground v.1.15,2013-02-20 11:17:00,
2013-02-20 06:22:00,26.4,15.1,30.24,WNW,299,0.0,0.0,62,0.00,,,0.00,Wunderground v.1.15,2013-02-20 11:22:00,
2013-02-20 06:27:00,26.3,15.4,30.24,WNW,299,0.0,0.0,63,0.00,,,0.00,Wunderground v.1.15,2013-02-20 11:27:00,
2013-02-20 06:32:00,26.1,14.5,30.24,WNW,299,0.0,0.0,61,0.00,,,0.00,Wunderground v.1.15,2013-02-20 11:32:00,
2013-02-20 06:37:00,26.1,14.8,30.24,WNW,299,0.0,0.0,62,0.00,,,0.00,Wunderground v.1.15,2013-02-20 11:37:00,
2013-02-20 06:42:00,26.0,14.8,30.24,WNW,299,0.0,1.0,62,0.00,,,0.00,Wunderground v.1.15,2013-02-20 11:42:00,
2013-02-20 06:47:00,25.8,14.9,30.24,WNW,299,0.0,1.0,63,0.00,,,0.00,Wunderground v.1.15,2013-02-20 11:47:00,
2013-02-20 06:52:00,25.6,15.1,30.24,WNW,299,0.0,1.0,64,0.00,,,0.00,Wunderground v.1.15,2013-02-20 11:52:00,
2013-02-20 06:57:00,25.4,14.2,30.25,WNW,299,1.0,1.0,62,0.00,,,0.00,Wunderground v.1.15,2013-02-20 11:57:00,
2013-02-20 07:02:00,25.3,14.5,30.25,WNW,299,0.0,1.0,63,0.00,,,0.00,Wunderground v.1.15,2013-02-20 12:02:00,
2013-02-20 07:07:00,25.3,14.1,30.25,WNW,299,0.0,1.0,62,0.00,,,0.00,Wunderground v.1.15,2013-02-20 12:07:00,
2013-02-20 07:12:00,25.1,14.3,30.25,WNW,299,0.0,0.0,63,0.00,,,0.00,Wunderground v.1.15,2013-02-20 12:12:00,
2013-02-20 07:17:00,25.0,13.8,30.25,WNW,299,0.0,0.0,62,0.00,,,0.00,Wunderground v.1.15,2013-02-20 12:17:00,
2013-02-20 07:22:00,24.8,14.0,30.25,WNW,299,0.0,1.0,63,0.00,,,0.00,Wunderground v.1.15,2013-02-20 12:22:00,
2013-02-20 07:27:00,24.8,13.6,30.26,WNW,299,0.0,2.0,62,0.00,,,0.00,Wunderground v.1.15,2013-02-20 12:27:00,
2013-02-20 07:32:00,24.8,13.2,30.26,WNW,299,2.0,3.0,61,0.00,,,0.00,Wunderground v.1.15,2013-02-20 12:32:00,
2013-02-20 07:37:00,25.0,13.4,30.26,WNW,299,2.0,3.0,61,0.00,,,0.00,Wunderground v.1.15,2013-02-20 12:37:00,
2013-02-20 07:42:00,25.3,13.7,30.26,WNW,299,0.0,1.0,61,0.00,,,0.00,Wunderground v.1.15,2013-02-20 12:42:00,
2013-02-20 07:47:00,25.4,13.4,30.26,WNW,299,0.0,2.0,60,0.00,,,0.00,Wunderground v.1.15,2013-02-20 12:47:00,
2013-02-20 07:52:00,25.6,14.7,30.26,WNW,299,1.0,1.0,63,0.00,,,0.00,Wunderground v.1.15,2013-02-20 12:52:00,
2013-02-20 07:57:00,25.7,14.5,30.26,WNW,299,1.0,4.0,62,0.00,,,0.00,Wunderground v.1.15,2013-02-20 12:57:00,
2013-02-20 08:02:00,26.0,14.0,30.26,WNW,299,0.0,4.0,60,0.00,,,0.00,Wunderground v.1.15,2013-02-20 13:02:00,
2013-02-20 08:07:00,26.0,13.2,30.26,WNW,302,0.0,6.0,58,0.00,,,0.00,Wunderground v.1.15,2013-02-20 13:07:00,
2013-02-20 08:12:00,26.1,13.3,30.26,NW,304,0.0,7.0,58,0.00,,,0.00,Wunderground v.1.15,2013-02-20 13:12:00,
2013-02-20 08:17:00,26.3,13.5,30.26,NW,307,3.0,7.0,58,0.00,,,0.00,Wunderground v.1.15,2013-02-20 13:17:00,
2013-02-20 08:22:00,26.4,13.2,30.26,NW,307,0.0,2.0,57,0.00,,,0.00,Wunderground v.1.15,2013-02-20 13:22:00,
2013-02-20 08:27:00,26.6,12.6,30.27,NW,307,4.0,6.0,55,0.00,,,0.00,Wunderground v.1.15,2013-02-20 13:27:00,
2013-02-20 08:32:00,26.9,12.9,30.27,NW,307,0.0,4.0,55,0.00,,,0.00,Wunderground v.1.15,2013-02-20 13:32:00,
2013-02-20 08:38:00,27.2,13.1,30.27,NW,307,1.0,6.0,55,0.00,,,0.00,Wunderground v.1.15,2013-02-20 13:38:00,
2013-02-20 08:43:00,27.3,13.7,30.28,NW,307,2.0,2.0,56,0.00,,,0.00,Wunderground v.1.15,2013-02-20 13:43:00,
2013-02-20 08:48:00,27.8,12.0,30.28,NW,307,0.0,3.0,51,0.00,,,0.00,Wunderground v.1.15,2013-02-20 13:48:00,
2013-02-20 08:53:00,28.2,12.8,30.28,NW,307,0.0,3.0,52,0.00,,,0.00,Wunderground v.1.15,2013-02-20 13:53:00,
2013-02-20 08:58:00,28.4,11.6,30.28,NW,307,2.0,4.0,49,0.00,,,0.00,Wunderground v.1.15,2013-02-20 13:58:00,
2013-02-20 09:03:00,28.2,12.8,30.28,WNW,296,2.0,9.0,52,0.00,,,0.00,Wunderground v.1.15,2013-02-20 14:03:00,
2013-02-20 09:08:00,28.5,12.2,30.28,WNW,296,1.0,9.0,50,0.00,,,0.00,Wunderground v.1.15,2013-02-20 14:08:00,
2013-02-20 09:13:00,28.8,12.5,30.28,WNW,296,0.0,3.0,50,0.00,,,0.00,Wunderground v.1.15,2013-02-20 14:13:00,
2013-02-20 09:18:00,29.5,13.1,30.28,WNW,296,0.0,3.0,50,0.00,,,0.00,Wunderground v.1.15,2013-02-20 14:18:00,
2013-02-20 09:23:00,30.1,13.7,30.28,WNW,297,0.0,2.0,50,0.00,,,0.00,Wunderground v.1.15,2013-02-20 14:23:00,
2013-02-20 09:28:00,30.7,13.3,30.28,WNW,297,2.0,3.0,48,0.00,,,0.00,Wunderground v.1.15,2013-02-20 14:28:00,
2013-02-20 09:33:00,31.0,12.6,30.28,WNW,300,0.0,5.0,46,0.00,,,0.00,Wunderground v.1.15,2013-02-20 14:33:00,
2013-02-20 09:38:00,31.0,13.6,30.29,WNW,300,0.0,5.0,48,0.00,,,0.00,Wunderground v.1.15,2013-02-20 14:38:00,
2013-02-20 09:43:00,31.0,13.6,30.29,WNW,300,0.0,2.0,48,0.00,,,0.00,Wunderground v.1.15,2013-02-20 14:43:00,
2013-02-20 09:48:00,31.5,13.6,30.29,NW,307,0.0,3.0,47,0.00,,,0.00,Wunderground v.1.15,2013-02-20 14:48:00,
2013-02-20 09:53:00,31.3,14.3,30.29,NW,307,0.0,4.0,49,0.00,,,0.00,Wunderground v.1.15,2013-02-20 14:53:00,
2013-02-20 09:58:00,31.2,15.2,30.29,NW,307,0.0,4.0,51,0.00,,,0.00,Wunderground v.1.15,2013-02-20 14:58:00,
2013-02-20 10:03:00,31.5,14.0,30.29,NW,307,5.0,5.0,48,0.00,,,0.00,Wunderground v.1.15,2013-02-20 15:03:00,
2013-02-20 10:08:00,31.0,14.5,30.29,NW,307,0.0,5.0,50,0.00,,,0.00,Wunderground v.1.15,2013-02-20 15:08:00,
2013-02-20 10:13:00,31.3,15.2,30.29,NW,307,2.0,2.0,51,0.00,,,0.00,Wunderground v.1.15,2013-02-20 15:13:00,
2013-02-20 10:19:00,31.2,13.3,30.29,NW,309,2.0,7.0,47,0.00,,,0.00,Wunderground v.1.15,2013-02-20 15:19:00,
2013-02-20 10:24:00,31.2,14.7,30.30,NW,309,2.0,5.0,50,0.00,,,0.00,Wunderground v.1.15,2013-02-20 15:24:00,
2013-02-20 10:29:00,31.9,12.4,30.30,NW,310,1.0,5.0,44,0.00,,,0.00,Wunderground v.1.15,2013-02-20 15:29:00,
2013-02-20 10:34:00,32.7,12.6,30.30,NNW,347,6.0,11.0,43,0.00,,,0.00,Wunderground v.1.15,2013-02-20 15:34:00,
2013-02-20 10:39:00,32.7,12.6,30.29,NW,308,2.0,11.0,43,0.00,,,0.00,Wunderground v.1.15,2013-02-20 15:39:00,
2013-02-20 10:44:00,33.1,10.8,30.29,NW,326,2.0,5.0,39,0.00,,,0.00,Wunderground v.1.15,2013-02-20 15:44:00,
2013-02-20 10:49:00,33.4,11.6,30.29,NW,326,3.0,5.0,40,0.00,,,0.00,Wunderground v.1.15,2013-02-20 15:49:00,
2013-02-20 10:54:00,33.4,11.1,30.29,NW,321,1.0,7.0,39,0.00,,,0.00,Wunderground v.1.15,2013-02-20 15:54:00,
2013-02-20 10:59:00,33.4,10.5,30.29,NW,321,0.0,7.0,38,0.00,,,0.00,Wunderground v.1.15,2013-02-20 15:59:00,
2013-02-20 11:04:00,33.8,10.2,30.29,NW,323,1.0,6.0,37,0.00,,,0.00,Wunderground v.1.15,2013-02-20 16:04:00,
2013-02-20 11:09:00,34.1,9.3,30.28,NW,323,3.0,6.0,35,0.00,,,0.00,Wunderground v.1.15,2013-02-20 16:09:00,
2013-02-20 11:14:00,34.3,9.4,30.28,NW,326,0.0,3.0,35,0.00,,,0.00,Wunderground v.1.15,2013-02-20 16:14:00,
2013-02-20 11:19:00,34.4,10.2,30.28,NW,326,0.0,5.0,36,0.00,,,0.00,Wunderground v.1.15,2013-02-20 16:19:00,
2013-02-20 11:24:00,34.4,12.0,30.29,NW,326,0.0,3.0,39,0.00,,,0.00,Wunderground v.1.15,2013-02-20 16:24:00,
2013-02-20 11:29:00,34.4,12.5,30.29,NW,326,0.0,3.0,40,0.00,,,0.00,Wunderground v.1.15,2013-02-20 16:29:00,
2013-02-20 11:34:00,34.4,10.8,30.29,NNW,333,3.0,5.0,37,0.00,,,0.00,Wunderground v.1.15,2013-02-20 16:34:00,
2013-02-20 11:39:00,34.6,12.1,30.28,NW,326,0.0,6.0,39,0.00,,,0.00,Wunderground v.1.15,2013-02-20 16:39:00,
2013-02-20 11:44:00,34.7,12.2,30.28,NW,311,5.0,6.0,39,0.00,,,0.00,Wunderground v.1.15,2013-02-20 16:44:00,
2013-02-20 11:49:00,35.0,11.9,30.28,NW,318,1.0,6.0,38,0.00,,,0.00,Wunderground v.1.15,2013-02-20 16:49:00,
2013-02-20 11:54:00,35.2,10.9,30.29,NW,313,5.0,5.0,36,0.00,,,0.00,Wunderground v.1.15,2013-02-20 16:54:00,
2013-02-20 11:59:00,34.9,10.6,30.29,WNW,303,5.0,10.0,36,0.00,,,0.00,Wunderground v.1.15,2013-02-20 16:59:00,
2013-02-20 12:04:00,34.6,8.4,30.29,WNW,301,2.0,9.0,33,0.00,,,0.00,Wunderground v.1.15,2013-02-20 17:04:00,
2013-02-20 12:09:00,34.3,5.3,30.29,NW,311,6.0,9.0,29,0.00,,,0.00,Wunderground v.1.15,2013-02-20 17:09:00,
2013-02-20 12:14:00,34.0,5.8,30.29,NW,321,6.0,7.0,30,0.00,,,0.00,Wunderground v.1.15,2013-02-20 17:14:00,
2013-02-20 12:19:00,34.1,8.0,30.29,NW,316,3.0,7.0,33,0.00,,,0.00,Wunderground v.1.15,2013-02-20 17:19:00,
2013-02-20 12:24:00,34.0,6.5,30.28,NW,320,4.0,9.0,31,0.00,,,0.00,Wunderground v.1.15,2013-02-20 17:24:00,
2013-02-20 12:29:00,34.0,7.2,30.28,NW,317,2.0,9.0,32,0.00,,,0.00,Wunderground v.1.15,2013-02-20 17:29:00,
2013-02-20 12:34:00,34.0,7.2,30.28,NW,317,0.0,9.0,32,0.00,,,0.00,Wunderground v.1.15,2013-02-20 17:34:00,
2013-02-20 12:39:00,34.1,8.6,30.27,NW,324,2.0,9.0,34,0.00,,,0.00,Wunderground v.1.15,2013-02-20 17:39:00,
2013-02-20 12:44:00,34.1,8.0,30.27,NW,321,4.0,6.0,33,0.00,,,0.00,Wunderground v.1.15,2013-02-20 17:44:00,
2013-02-20 12:49:00,34.3,8.8,30.27,NW,321,1.0,6.0,34,0.00,,,0.00,Wunderground v.1.15,2013-02-20 17:49:00,
2013-02-20 12:55:00,34.6,7.7,30.26,NW,321,0.0,5.0,32,0.00,,,0.00,Wunderground v.1.15,2013-02-20 17:55:00,
2013-02-20 13:00:00,34.6,8.4,30.26,WNW,286,5.0,5.0,33,0.00,,,0.00,Wunderground v.1.15,2013-02-20 18:00:00,
2013-02-20 13:05:00,34.3,10.1,30.26,WNW,301,5.0,8.0,36,0.00,,,0.00,Wunderground v.1.15,2013-02-20 18:05:00,
2013-02-20 13:10:00,34.4,8.9,30.27,NW,306,6.0,6.0,34,0.00,,,0.00,Wunderground v.1.15,2013-02-20 18:10:00,
2013-02-20 13:15:00,34.6,8.4,30.27,NW,307,0.0,6.0,33,0.00,,,0.00,Wunderground v.1.15,2013-02-20 18:15:00,
2013-02-20 13:20:00,35.0,8.7,30.27,NW,307,2.0,4.0,33,0.00,,,0.00,Wunderground v.1.15,2013-02-20 18:20:00,
2013-02-20 13:25:00,35.0,10.1,30.27,NW,307,3.0,5.0,35,0.00,,,0.00,Wunderground v.1.15,2013-02-20 18:25:00,
2013-02-20 13:30:00,35.2,10.2,30.27,NW,307,7.0,7.0,35,0.00,,,0.00,Wunderground v.1.15,2013-02-20 18:30:00,
2013-02-20 13:35:00,35.3,9.0,30.27,NW,307,0.0,9.0,33,0.00,,,0.00,Wunderground v.1.15,2013-02-20 18:35:00,
2013-02-20 13:40:00,35.8,10.1,30.26,NW,306,2.0,3.0,34,0.00,,,0.00,Wunderground v.1.15,2013-02-20 18:40:00,
2013-02-20 13:45:00,35.8,8.1,30.26,NW,306,0.0,5.0,31,0.00,,,0.00,Wunderground v.1.15,2013-02-20 18:45:00,
2013-02-20 13:50:00,35.8,8.1,30.26,NW,321,1.0,2.0,31,0.00,,,0.00,Wunderground v.1.15,2013-02-20 18:50:00,
2013-02-20 13:55:00,35.6,7.9,30.26,NW,323,3.0,6.0,31,0.00,,,0.00,Wunderground v.1.15,2013-02-20 18:55:00,
2013-02-20 14:00:00,35.8,9.5,30.26,NW,323,3.0,3.0,33,0.00,,,0.00,Wunderground v.1.15,2013-02-20 19:00:00,
2013-02-20 14:05:00,36.3,11.2,30.26,NW,323,1.0,6.0,35,0.00,,,0.00,Wunderground v.1.15,2013-02-20 19:05:00,
2013-02-20 14:10:00,36.6,12.7,30.25,NW,323,1.0,5.0,37,0.00,,,0.00,Wunderground v.1.15,2013-02-20 19:10:00,
2013-02-20 14:15:00,36.3,11.2,30.25,NW,323,4.0,7.0,35,0.00,,,0.00,Wunderground v.1.15,2013-02-20 19:15:00,
2013-02-20 14:20:00,35.9,10.9,30.25,WNW,295,5.0,5.0,35,0.00,,,0.00,Wunderground v.1.15,2013-02-20 19:20:00,
2013-02-20 14:25:00,35.8,12.6,30.26,WNW,300,5.0,7.0,38,0.00,,,0.00,Wunderground v.1.15,2013-02-20 19:25:00,
2013-02-20 14:30:00,35.6,11.2,30.26,NW,311,4.0,4.0,36,0.00,,,0.00,Wunderground v.1.15,2013-02-20 19:30:00,
2013-02-20 14:35:00,35.6,12.5,30.26,WNW,293,4.0,9.0,38,0.00,,,0.00,Wunderground v.1.15,2013-02-20 19:35:00,
2013-02-20 14:40:00,35.6,11.9,30.26,WNW,298,3.0,4.0,37,0.00,,,0.00,Wunderground v.1.15,2013-02-20 19:40:00,
2013-02-20 14:45:00,35.6,11.9,30.26,NW,306,0.0,7.0,37,0.00,,,0.00,Wunderground v.1.15,2013-02-20 19:45:00,
2013-02-20 14:50:00,35.9,12.7,30.26,NW,305,7.0,7.0,38,0.00,,,0.00,Wunderground v.1.15,2013-02-20 19:50:00,
2013-02-20 14:55:00,35.6,13.0,30.26,NW,305,4.0,7.0,39,0.00,,,0.00,Wunderground v.1.15,2013-02-20 19:55:00,
2013-02-20 15:00:00,35.5,11.8,30.26,NW,311,4.0,6.0,37,0.00,,,0.00,Wunderground v.1.15,2013-02-20 20:00:00,
2013-02-20 15:05:00,35.3,11.6,30.26,WNW,295,2.0,6.0,37,0.00,,,0.00,Wunderground v.1.15,2013-02-20 20:05:00,
2013-02-20 15:10:00,35.5,11.8,30.26,WNW,297,0.0,2.0,37,0.00,,,0.00,Wunderground v.1.15,2013-02-20 20:10:00,
2013-02-20 15:15:00,35.5,12.4,30.26,WNW,300,3.0,6.0,38,0.00,,,0.00,Wunderground v.1.15,2013-02-20 20:15:00,
2013-02-20 15:20:00,35.3,11.6,30.26,WNW,302,5.0,6.0,37,0.00,,,0.00,Wunderground v.1.15,2013-02-20 20:20:00,
2013-02-20 15:25:00,35.2,12.7,30.26,WNW,300,4.0,6.0,39,0.00,,,0.00,Wunderground v.1.15,2013-02-20 20:25:00,
2013-02-20 15:30:00,35.0,11.9,30.26,WNW,302,1.0,3.0,38,0.00,,,0.00,Wunderground v.1.15,2013-02-20 20:30:00,
2013-02-20 15:35:00,35.3,11.6,30.26,WNW,302,3.0,5.0,37,0.00,,,0.00,Wunderground v.1.15,2013-02-20 20:35:00,
2013-02-20 15:40:00,35.2,10.9,30.25,NW,314,6.0,7.0,36,0.00,,,0.00,Wunderground v.1.15,2013-02-20 20:40:00,
2013-02-20 15:45:00,35.0,11.3,30.25,NW,314,0.0,7.0,37,0.00,,,0.00,Wunderground v.1.15,2013-02-20 20:45:00,
2013-02-20 15:50:00,35.2,10.2,30.25,NW,314,2.0,5.0,35,0.00,,,0.00,Wunderground v.1.15,2013-02-20 20:50:00,
2013-02-20 15:55:00,35.0,11.9,30.26,NW,310,4.0,7.0,38,0.00,,,0.00,Wunderground v.1.15,2013-02-20 20:55:00,
2013-02-20 16:00:00,35.2,10.9,30.26,NW,308,3.0,4.0,36,0.00,,,0.00,Wunderground v.1.15,2013-02-20 21:00:00,
2013-02-20 16:05:00,35.2,10.2,30.26,NW,313,2.0,6.0,35,0.00,,,0.00,Wunderground v.1.15,2013-02-20 21:05:00,
2013-02-20 16:10:00,35.0,10.7,30.26,NW,313,2.0,2.0,36,0.00,,,0.00,Wunderground v.1.15,2013-02-20 21:10:00,
2013-02-20 16:16:00,35.0,10.7,30.26,NW,313,0.0,4.0,36,0.00,,,0.00,Wunderground v.1.15,2013-02-20 21:16:00,
2013-02-20 16:21:00,35.2,12.7,30.26,NW,313,0.0,1.0,39,0.00,,,0.00,Wunderground v.1.15,2013-02-20 21:21:00,
2013-02-20 16:26:00,35.2,11.5,30.27,NW,313,5.0,6.0,37,0.00,,,0.00,Wunderground v.1.15,2013-02-20 21:26:00,
2013-02-20 16:31:00,35.0,11.3,30.27,NW,314,2.0,5.0,37,0.00,,,0.00,Wunderground v.1.15,2013-02-20 21:31:00,
2013-02-20 16:36:00,35.0,11.3,30.27,NW,314,2.0,5.0,37,0.00,,,0.00,Wunderground v.1.15,2013-02-20 21:36:00,
2013-02-20 16:41:00,34.9,11.8,30.28,NW,314,2.0,3.0,38,0.00,,,0.00,Wunderground v.1.15,2013-02-20 21:41:00,
2013-02-20 16:46:00,34.7,10.4,30.28,NW,314,0.0,4.0,36,0.00,,,0.00,Wunderground v.1.15,2013-02-20 21:46:00,
2013-02-20 16:51:00,34.7,11.0,30.28,NW,314,3.0,4.0,37,0.00,,,0.00,Wunderground v.1.15,2013-02-20 21:51:00,
2013-02-20 16:56:00,34.7,11.0,30.27,NW,314,1.0,5.0,37,0.00,,,0.00,Wunderground v.1.15,2013-02-20 21:56:00,
2013-02-20 17:01:00,34.6,10.3,30.27,NW,314,3.0,5.0,36,0.00,,,0.00,Wunderground v.1.15,2013-02-20 22:01:00,
2013-02-20 17:06:00,34.4,12.5,30.27,NW,314,0.0,5.0,40,0.00,,,0.00,Wunderground v.1.15,2013-02-20 22:06:00,
2013-02-20 17:11:00,34.4,13.1,30.27,NW,314,0.0,4.0,41,0.00,,,0.00,Wunderground v.1.15,2013-02-20 22:11:00,
2013-02-20 17:16:00,34.6,11.6,30.27,NW,314,0.0,4.0,38,0.00,,,0.00,Wunderground v.1.15,2013-02-20 22:16:00,
2013-02-20 17:21:00,34.3,11.9,30.27,NW,314,0.0,4.0,39,0.00,,,0.00,Wunderground v.1.15,2013-02-20 22:21:00,
2013-02-20 17:26:00,34.1,13.4,30.26,NW,314,1.0,4.0,42,0.00,,,0.00,Wunderground v.1.15,2013-02-20 22:26:00,
2013-02-20 17:31:00,34.0,12.7,30.26,NW,314,0.0,1.0,41,0.00,,,0.00,Wunderground v.1.15,2013-02-20 22:31:00,
2013-02-20 17:36:00,34.0,12.7,30.26,NW,314,0.0,1.0,41,0.00,,,0.00,Wunderground v.1.15,2013-02-20 22:36:00,
2013-02-20 17:41:00,34.1,14.4,30.26,NW,314,4.0,4.0,44,0.00,,,0.00,Wunderground v.1.15,2013-02-20 22:41:00,
2013-02-20 17:46:00,34.0,13.3,30.26,NW,314,0.0,4.0,42,0.00,,,0.00,Wunderground v.1.15,2013-02-20 22:46:00,
2013-02-20 17:51:00,33.8,12.6,30.26,NW,314,0.0,3.0,41,0.00,,,0.00,Wunderground v.1.15,2013-02-20 22:51:00,
2013-02-20 17:56:00,33.7,13.0,30.27,NW,314,1.0,4.0,42,0.00,,,0.00,Wunderground v.1.15,2013-02-20 22:56:00,
2013-02-20 18:01:00,33.5,13.4,30.27,NW,314,0.0,1.0,43,0.00,,,0.00,Wunderground v.1.15,2013-02-20 23:01:00,
2013-02-20 18:06:00,33.2,13.1,30.27,NW,314,0.0,2.0,43,0.00,,,0.00,Wunderground v.1.15,2013-02-20 23:06:00,
2013-02-20 18:11:00,32.9,13.9,30.26,NW,314,0.0,0.0,45,0.00,,,0.00,Wunderground v.1.15,2013-02-20 23:11:00,
2013-02-20 18:16:00,32.5,13.0,30.26,NW,314,0.0,0.0,44,0.00,,,0.00,Wunderground v.1.15,2013-02-20 23:16:00,
2013-02-20 18:21:00,32.4,12.4,30.26,NW,314,0.0,0.0,43,0.00,,,0.00,Wunderground v.1.15,2013-02-20 23:21:00,
2013-02-20 18:26:00,31.9,13.4,30.26,NW,314,0.0,2.0,46,0.00,,,0.00,Wunderground v.1.15,2013-02-20 23:26:00,
2013-02-20 18:31:00,31.6,14.1,30.26,NW,314,1.0,1.0,48,0.00,,,0.00,Wunderground v.1.15,2013-02-20 23:31:00,
2013-02-20 18:37:00,31.3,14.3,30.26,NW,314,1.0,2.0,49,0.00,,,0.00,Wunderground v.1.15,2013-02-20 23:37:00,
2013-02-20 18:42:00,31.0,15.0,30.26,NW,314,0.0,1.0,51,0.00,,,0.00,Wunderground v.1.15,2013-02-20 23:42:00,
2013-02-20 18:47:00,30.9,14.0,30.26,NW,314,1.0,2.0,49,0.00,,,0.00,Wunderground v.1.15,2013-02-20 23:47:00,
2013-02-20 18:52:00,30.6,14.1,30.26,NW,314,1.0,1.0,50,0.00,,,0.00,Wunderground v.1.15,2013-02-20 23:52:00,
2013-02-20 18:57:00,30.4,14.0,30.26,NW,314,2.0,4.0,50,0.00,,,0.00,Wunderground v.1.15,2013-02-20 23:57:00,
2013-02-20 19:02:00,30.3,13.9,30.26,NW,314,2.0,4.0,50,0.00,,,0.00,Wunderground v.1.15,2013-02-21 00:02:00,
2013-02-20 19:07:00,30.3,13.4,30.26,NW,314,2.0,5.0,49,0.00,,,0.00,Wunderground v.1.15,2013-02-21 00:07:00,
2013-02-20 19:12:00,30.3,12.9,30.27,NW,314,2.0,4.0,48,0.00,,,0.00,Wunderground v.1.15,2013-02-21 00:12:00,
2013-02-20 19:17:00,30.3,12.9,30.27,NW,314,1.0,5.0,48,0.00,,,0.00,Wunderground v.1.15,2013-02-21 00:17:00,
2013-02-20 19:22:00,30.4,12.5,30.27,NW,314,2.0,5.0,47,0.00,,,0.00,Wunderground v.1.15,2013-02-21 00:22:00,
2013-02-20 19:27:00,30.4,13.5,30.26,NW,314,0.0,5.0,49,0.00,,,0.00,Wunderground v.1.15,2013-02-21 00:27:00,
2013-02-20 19:32:00,30.4,13.5,30.26,NW,314,2.0,3.0,49,0.00,,,0.00,Wunderground v.1.15,2013-02-21 00:32:00,
2013-02-20 19:37:00,30.4,13.5,30.26,NW,314,3.0,4.0,49,0.00,,,0.00,Wunderground v.1.15,2013-02-21 00:37:00,
2013-02-20 19:42:00,30.4,14.0,30.25,NW,314,2.0,3.0,50,0.00,,,0.00,Wunderground v.1.15,2013-02-21 00:42:00,
2013-02-20 19:47:00,30.6,14.1,30.25,NW,314,2.0,4.0,50,0.00,,,0.00,Wunderground v.1.15,2013-02-21 00:47:00,
2013-02-20 19:52:00,30.6,14.1,30.25,NW,314,2.0,3.0,50,0.00,,,0.00,Wunderground v.1.15,2013-02-21 00:52:00,
2013-02-20 19:57:00,30.6,14.1,30.25,NW,314,0.0,4.0,50,0.00,,,0.00,Wunderground v.1.15,2013-02-21 00:57:00,
2013-02-20 20:02:00,30.7,14.7,30.25,NW,314,0.0,2.0,51,0.00,,,0.00,Wunderground v.1.15,2013-02-21 01:02:00,
2013-02-20 20:07:00,30.7,14.7,30.25,NW,314,2.0,3.0,51,0.00,,,0.00,Wunderground v.1.15,2013-02-21 01:07:00,
2013-02-20 20:12:00,30.9,14.9,30.26,NW,314,2.0,3.0,51,0.00,,,0.00,Wunderground v.1.15,2013-02-21 01:12:00,
2013-02-20 20:17:00,30.9,14.9,30.26,NW,314,2.0,3.0,51,0.00,,,0.00,Wunderground v.1.15,2013-02-21 01:17:00,
2013-02-20 20:22:00,30.9,14.4,30.26,NW,314,0.0,3.0,50,0.00,,,0.00,Wunderground v.1.15,2013-02-21 01:22:00,
2013-02-20 20:27:00,30.9,14.4,30.24,NW,314,2.0,3.0,50,0.00,,,0.00,Wunderground v.1.15,2013-02-21 01:27:00,
2013-02-20 20:32:00,30.9,15.3,30.24,NW,314,2.0,4.0,52,0.00,,,0.00,Wunderground v.1.15,2013-02-21 01:32:00,
2013-02-20 20:37:00,30.7,14.7,30.24,NW,314,2.0,4.0,51,0.00,,,0.00,Wunderground v.1.15,2013-02-21 01:37:00,
2013-02-20 20:42:00,30.7,14.2,30.24,NW,314,0.0,2.0,50,0.00,,,0.00,Wunderground v.1.15,2013-02-21 01:42:00,
2013-02-20 20:47:00,30.7,14.2,30.24,NW,314,0.0,3.0,50,0.00,,,0.00,Wunderground v.1.15,2013-02-21 01:47:00,
2013-02-20 20:52:00,30.7,14.7,30.24,NW,314,0.0,3.0,51,0.00,,,0.00,Wunderground v.1.15,2013-02-21 01:52:00,
2013-02-20 20:57:00,30.6,15.5,30.24,NW,314,0.0,3.0,53,0.00,,,0.00,Wunderground v.1.15,2013-02-21 01:57:00,
2013-02-20 21:02:00,30.4,14.4,30.24,NW,314,0.0,2.0,51,0.00,,,0.00,Wunderground v.1.15,2013-02-21 02:02:00,
2013-02-20 21:07:00,30.3,14.3,30.24,NW,314,2.0,3.0,51,0.00,,,0.00,Wunderground v.1.15,2013-02-21 02:07:00,
2013-02-20 21:12:00,30.3,13.9,30.25,NW,314,2.0,2.0,50,0.00,,,0.00,Wunderground v.1.15,2013-02-21 02:12:00,
2013-02-20 21:17:00,30.1,14.1,30.25,NW,314,2.0,5.0,51,0.00,,,0.00,Wunderground v.1.15,2013-02-21 02:17:00,
2013-02-20 21:22:00,29.8,15.2,30.25,NW,314,2.0,3.0,54,0.00,,,0.00,Wunderground v.1.15,2013-02-21 02:22:00,
2013-02-20 21:28:00,29.7,14.2,30.25,NW,314,0.0,3.0,52,0.00,,,0.00,Wunderground v.1.15,2013-02-21 02:28:00,
2013-02-20 21:33:00,29.5,14.5,30.25,NW,314,0.0,2.0,53,0.00,,,0.00,Wunderground v.1.15,2013-02-21 02:33:00,
2013-02-20 21:38:00,29.4,14.4,30.25,NW,314,1.0,3.0,53,0.00,,,0.00,Wunderground v.1.15,2013-02-21 02:38:00,
2013-02-20 21:43:00,29.3,14.3,30.24,NW,314,2.0,3.0,53,0.00,,,0.00,Wunderground v.1.15,2013-02-21 02:43:00,
2013-02-20 21:48:00,29.3,14.3,30.24,NW,314,1.0,3.0,53,0.00,,,0.00,Wunderground v.1.15,2013-02-21 02:48:00,
2013-02-20 21:53:00,29.1,14.1,30.24,NW,314,3.0,5.0,53,0.00,,,0.00,Wunderground v.1.15,2013-02-21 02:53:00,
2013-02-20 21:58:00,29.1,14.1,30.24,NW,314,2.0,5.0,53,0.00,,,0.00,Wunderground v.1.15,2013-02-21 02:58:00,
2013-02-20 22:03:00,29.1,14.1,30.24,NW,314,1.0,3.0,53,0.00,,,0.00,Wunderground v.1.15,2013-02-21 03:03:00,
2013-02-20 22:08:00,29.0,14.0,30.24,NW,314,0.0,3.0,53,0.00,,,0.00,Wunderground v.1.15,2013-02-21 03:08:00,
2013-02-20 22:13:00,28.7,15.8,30.25,NW,314,2.0,4.0,58,0.00,,,0.00,Wunderground v.1.15,2013-02-21 03:13:00,
2013-02-20 22:18:00,28.2,14.9,30.25,NW,314,2.0,4.0,57,0.00,,,0.00,Wunderground v.1.15,2013-02-21 03:18:00,
2013-02-20 22:23:00,28.4,14.3,30.25,NW,314,3.0,3.0,55,0.00,,,0.00,Wunderground v.1.15,2013-02-21 03:23:00,
2013-02-20 22:28:00,28.4,14.7,30.25,NW,314,1.0,3.0,56,0.00,,,0.00,Wunderground v.1.15,2013-02-21 03:28:00,
2013-02-20 22:33:00,28.2,14.5,30.25,NW,314,0.0,3.0,56,0.00,,,0.00,Wunderground v.1.15,2013-02-21 03:33:00,
2013-02-20 22:38:00,28.4,15.1,30.25,NW,314,1.0,4.0,57,0.00,,,0.00,Wunderground v.1.15,2013-02-21 03:38:00,
2013-02-20 22:43:00,28.2,14.1,30.25,NW,314,1.0,4.0,55,0.00,,,0.00,Wunderground v.1.15,2013-02-21 03:43:00,
2013-02-20 22:48:00,28.1,14.0,30.25,NW,314,1.0,4.0,55,0.00,,,0.00,Wunderground v.1.15,2013-02-21 03:48:00,
2013-02-20 22:53:00,28.2,14.1,30.25,NW,314,0.0,3.0,55,0.00,,,0.00,Wunderground v.1.15,2013-02-21 03:53:00,
2013-02-20 22:58:00,28.2,14.5,30.25,NW,314,0.0,3.0,56,0.00,,,0.00,Wunderground v.1.15,2013-02-21 03:58:00,
2013-02-20 23:04:00,27.9,15.0,30.25,NW,314,1.0,3.0,58,0.00,,,0.00,Wunderground v.1.15,2013-02-21 04:04:00,
2013-02-20 23:09:00,27.8,14.9,30.25,NW,314,0.0,3.0,58,0.00,,,0.00,Wunderground v.1.15,2013-02-21 04:09:00,
2013-02-20 23:14:00,27.9,14.2,30.25,NW,314,2.0,3.0,56,0.00,,,0.00,Wunderground v.1.15,2013-02-21 04:14:00,
2013-02-20 23:19:00,27.9,14.6,30.25,NW,314,0.0,3.0,57,0.00,,,0.00,Wunderground v.1.15,2013-02-21 04:19:00,
2013-02-20 23:24:00,27.9,13.8,30.25,NW,314,0.0,3.0,55,0.00,,,0.00,Wunderground v.1.15,2013-02-21 04:24:00,
2013-02-20 23:29:00,27.9,14.2,30.25,NW,314,0.0,3.0,56,0.00,,,0.00,Wunderground v.1.15,2013-02-21 04:29:00,
2013-02-20 23:34:00,27.6,15.5,30.25,NW,314,0.0,1.0,60,0.00,,,0.00,Wunderground v.1.15,2013-02-21 04:34:00,
2013-02-20 23:39:00,27.3,14.5,30.24,NW,314,1.0,4.0,58,0.00,,,0.00,Wunderground v.1.15,2013-02-21 04:39:00,
2013-02-20 23:44:00,27.6,15.1,30.24,NW,314,2.0,4.0,59,0.00,,,0.00,Wunderground v.1.15,2013-02-21 04:44:00,
2013-02-20 23:49:00,27.8,13.7,30.24,NW,314,0.0,4.0,55,0.00,,,0.00,Wunderground v.1.15,2013-02-21 04:49:00,
2013-02-20 23:54:00,27.9,14.2,30.23,NW,314,0.0,2.0,56,0.00,,,0.00,Wunderground v.1.15,2013-02-21 04:54:00,
2013-02-20 23:59:00,27.8,14.5,30.23,NW,314,0.0,2.0,57,0.00,,,0.00,Wunderground v.1.15,2013-02-21 04:59:00,